Hauptseite
METAR-TAF:

METAR-TAF

Flughäfen :

Flughafen Pontianak

Pontianak, Indonesien

Breite: 00-09S, Länge: 109-24E, Höhe: 3 m

Beobachtung

Neuester Wetterbericht von vor 45 Minuten, um 19:00 UTC
Wind 2 kt aus Ost/Nordost
Temperatur 26°C
Luftfeuchtigkeit 100%
Luftdruck 1008 hPa
Sichtweite: 9000 m
Durchbrochene Bewölkung in der Höhe von 2000 ft
Durchbrochene Bewölkung in der Höhe von 3100 ft
Geschlossene Wolkendecke in der Höhe von 3700 ft

METAR: WIOO 181900Z AUTO 06002KT 9000 BKN020 BKN031 OVC037 26/26 Q1008

Zeit: 02:45 (19:45 UTC)


TAF: fehlend

Wetterbeobachtungen und Prognosen von mehr als 4000 Flughäfen (METAR und TAF Bericht).

Die verfügbaren Stationen werden durch gelbe und rote Markierungen auf der Karte dargestellt.

Führen Sie die Maus auf sie, um den Namen der Station zu sehen.

Darauf klicken, um die Beobachtung von Wetterbeobachtungen und Prognosen zu sehen.

Um die Karte zu ändern : klicken Sie auf den grünen Tasten mit einem schwarzen Kreuz Zum Vergrößern, auf den grünen Button mit einem Gedankenstrich zu verkleinern, oder auf die grünen Pfeile für benachbarte Karten.


METAR-TAF: